Alden, Wisconsin
Current Conditions -  °F | °C
As of 9:15 AM on Thursday 18 Dec 2014 (Local Time) from KRNH Reporting Station
Overcast Overcast  
Wind Chill: 22°   Ceiling: 1100
Heat Index: 22°   Visibility: 10mi
Dew Point: 19°   Wind: 3mph
Humidity: 90%   Direction: 110°ESE
Pressure: 30.3"   Gusts: NA
Location:  45.1804°N, 92.551°W
Report Text: KRNH 181515Z AUTO 11003KT 10SM OVC011 M06/M07 A3030 RMK AO2 T10561070
Loading
Personal Weather Stations






























Interactive Weather Map New forecast layout! Learn more

10-Day Weather Forecast

Advertisements
Track Severe Weather on mobile